Time;durP1;ratioP1;P1;durP2;ratioP2;P2;SDS_P1;SDS_P2;PMS_P1;PMS_P2;Temp;Humidity;BMP_temperature;BMP_pressure;BME280_temperature;BME280_humidity;BME280_pressure;Samples;Min_cycle;Max_cycle;Signal;HPM_P1;HPM_P2
2023/07/10 00:00:05;;;;;;;4.57;4.17;;;20.80;99.90;;;;;;5049888;28;20517;-55
2023/07/10 00:02:31;;;;;;;5.50;4.87;;;20.80;99.90;;;;;;5051207;28;20519;-53
2023/07/10 00:04:58;;;;;;;5.50;4.57;;;20.80;99.90;;;;;;5044400;28;20506;-53
2023/07/10 00:07:24;;;;;;;7.20;5.07;;;20.80;99.90;;;;;;5050254;28;20566;-52
2023/07/10 00:09:52;;;;;;;11.70;4.60;;;20.70;99.90;;;;;;5050994;28;20505;-53
2023/07/10 00:12:22;;;;;;;3.90;3.70;;;20.70;99.90;;;;;;5050519;28;21156;-53
2023/07/10 00:14:48;;;;;;;5.70;4.60;;;20.70;99.90;;;;;;5048276;28;20458;-53
2023/07/10 00:17:16;;;;;;;5.47;4.80;;;20.70;99.90;;;;;;5044595;28;21042;-53
2023/07/10 00:19:42;;;;;;;9.63;4.03;;;20.70;99.90;;;;;;5049744;28;20584;-53
2023/07/10 00:22:09;;;;;;;5.30;4.53;;;20.60;99.90;;;;;;5050374;28;20545;-53
2023/07/10 00:24:35;;;;;;;7.17;4.07;;;20.60;99.90;;;;;;5047011;28;20454;-53
2023/07/10 00:27:04;;;;;;;4.43;4.03;;;20.60;99.90;;;;;;5048784;28;20986;-53
2023/07/10 00:29:33;;;;;;;4.47;4.17;;;20.60;99.90;;;;;;5047197;28;20575;-53
2023/07/10 00:32:02;;;;;;;4.57;4.03;;;20.60;99.90;;;;;;5050796;28;20536;-52
2023/07/10 00:34:29;;;;;;;5.67;4.83;;;20.60;99.90;;;;;;5050758;28;20462;-52
2023/07/10 00:36:55;;;;;;;5.13;4.30;;;20.60;99.90;;;;;;5049844;28;20564;-52
2023/07/10 00:39:24;;;;;;;4.73;4.07;;;20.60;99.90;;;;;;5048686;28;20522;-52
2023/07/10 00:41:59;;;;;;;5.30;4.80;;;20.60;99.90;;;;;;5050042;28;20489;-51
2023/07/10 00:44:32;;;;;;;10.43;4.63;;;20.60;99.90;;;;;;5048281;28;20482;-53
2023/07/10 00:47:03;;;;;;;4.40;4.00;;;20.60;99.90;;;;;;5048905;28;20580;-52
2023/07/10 00:49:39;;;;;;;5.00;4.50;;;20.60;99.90;;;;;;5050363;28;20518;-53
2023/07/10 00:52:13;;;;;;;6.53;4.60;;;20.60;99.90;;;;;;5049590;28;20504;-52
2023/07/10 00:54:45;;;;;;;8.57;4.57;;;20.70;99.90;;;;;;5049424;28;20536;-52
2023/07/10 00:57:15;;;;;;;11.73;5.03;;;20.70;99.90;;;;;;5056072;28;20577;-53
2023/07/10 00:59:43;;;;;;;6.63;5.00;;;20.70;99.90;;;;;;5043971;28;20478;-53
2023/07/10 01:02:19;;;;;;;5.77;4.63;;;20.80;99.90;;;;;;5049372;28;20896;-53
2023/07/10 01:04:52;;;;;;;4.47;4.17;;;20.80;99.90;;;;;;5045113;28;20536;-53
2023/07/10 01:07:20;;;;;;;5.40;4.90;;;20.80;99.90;;;;;;5047070;28;20471;-54
2023/07/10 01:09:52;;;;;;;5.10;4.53;;;20.80;99.90;;;;;;5041960;28;20557;-53
2023/07/10 01:12:20;;;;;;;7.00;4.57;;;20.90;99.90;;;;;;5050244;28;20490;-53
2023/07/10 01:14:48;;;;;;;4.67;4.27;;;20.90;99.90;;;;;;5049679;28;20904;-52
2023/07/10 01:17:15;;;;;;;8.03;4.17;;;20.90;99.90;;;;;;5046532;28;20927;-52
2023/07/10 01:19:45;;;;;;;9.03;4.90;;;20.90;99.90;;;;;;5049951;28;20535;-52
2023/07/10 01:22:14;;;;;;;4.97;4.57;;;20.90;99.90;;;;;;5047289;28;20476;-53
2023/07/10 01:24:40;;;;;;;7.27;5.00;;;20.90;99.90;;;;;;5055872;28;20927;-53
2023/07/10 01:27:12;;;;;;;5.83;4.37;;;20.90;99.90;;;;;;5054026;28;20482;-53
2023/07/10 01:29:43;;;;;;;9.43;4.90;;;20.90;99.90;;;;;;5049004;28;20485;-53
2023/07/10 01:32:12;;;;;;;4.37;4.07;;;20.90;99.90;;;;;;5050294;28;20473;-53
2023/07/10 01:34:40;;;;;;;12.70;4.53;;;20.80;99.90;;;;;;5047885;28;20549;-54
2023/07/10 01:37:08;;;;;;;7.53;4.30;;;20.80;99.90;;;;;;5047953;28;20580;-52
2023/07/10 01:39:40;;;;;;;13.10;5.47;;;20.70;99.90;;;;;;5048449;28;21087;-52
2023/07/10 01:42:07;;;;;;;5.13;3.97;;;20.70;99.90;;;;;;5047629;28;20636;-52
2023/07/10 01:44:36;;;;;;;5.70;4.20;;;20.80;99.90;;;;;;5051908;28;20881;-54
2023/07/10 01:47:05;;;;;;;6.10;4.77;;;20.70;99.90;;;;;;5043562;28;20556;-51
2023/07/10 01:49:35;;;;;;;6.07;5.20;;;20.40;99.90;;;;;;5049038;28;20574;-53
2023/07/10 01:52:03;;;;;;;7.53;4.30;;;20.30;92.70;;;;;;5049012;28;20506;-52
2023/07/10 01:54:31;;;;;;;4.63;4.20;;;20.20;22.10;;;;;;5053624;28;20536;-53
2023/07/10 01:56:59;;;;;;;7.97;3.63;;;20.00;99.90;;;;;;5047784;28;20610;-53
2023/07/10 01:59:30;;;;;;;5.17;4.77;;;19.90;99.90;;;;;;5051416;28;20549;-54
2023/07/10 02:01:58;;;;;;;13.20;5.27;;;19.90;99.90;;;;;;5046948;28;20963;-53
2023/07/10 02:04:25;;;;;;;9.07;4.70;;;19.80;99.90;;;;;;5043230;28;20549;-53
2023/07/10 02:06:54;;;;;;;6.13;4.97;;;19.80;99.90;;;;;;5051555;28;20469;-53
2023/07/10 02:09:21;;;;;;;4.60;4.17;;;19.80;99.90;;;;;;5051427;28;20472;-52
2023/07/10 02:11:47;;;;;;;6.97;4.83;;;19.80;99.90;;;;;;5049475;28;20544;-53
2023/07/10 02:14:15;;;;;;;12.80;4.13;;;19.80;99.90;;;;;;5042692;28;20489;-53
2023/07/10 02:16:42;;;;;;;8.63;4.93;;;19.80;99.90;;;;;;5050688;28;20995;-53
2023/07/10 02:19:09;;;;;;;7.80;4.50;;;19.90;99.90;;;;;;5052631;28;21008;-53
2023/07/10 02:21:35;;;;;;;5.63;4.43;;;19.80;99.90;;;;;;5054750;28;20999;-52
2023/07/10 02:24:02;;;;;;;17.47;4.80;;;19.90;99.90;;;;;;5051391;28;20552;-52
2023/07/10 02:26:29;;;;;;;4.73;4.33;;;19.80;99.90;;;;;;5052495;28;20557;-52
2023/07/10 02:28:57;;;;;;;4.60;4.10;;;19.90;99.90;;;;;;5048842;28;20463;-52
2023/07/10 02:31:25;;;;;;;7.60;4.33;;;19.90;99.90;;;;;;5050068;28;20508;-52
2023/07/10 02:33:51;;;;;;;5.93;4.37;;;19.90;99.90;;;;;;5051116;28;20552;-52
2023/07/10 02:36:18;;;;;;;4.53;3.60;;;19.90;99.90;;;;;;5048237;28;20569;-52
2023/07/10 02:38:45;;;;;;;4.87;3.87;;;20.00;99.90;;;;;;5054222;28;20921;-52
2023/07/10 02:41:11;;;;;;;5.53;4.33;;;20.00;99.90;;;;;;5053365;28;20839;-52
2023/07/10 02:43:38;;;;;;;3.80;3.50;;;20.00;99.90;;;;;;5052641;28;20557;-52
2023/07/10 02:46:04;;;;;;;6.07;4.60;;;20.00;99.90;;;;;;5053857;28;20489;-52
2023/07/10 02:48:32;;;;;;;4.53;4.13;;;20.00;99.90;;;;;;5057714;28;20994;-53
2023/07/10 02:51:00;;;;;;;4.53;4.20;;;20.00;99.90;;;;;;5051750;28;20572;-53
2023/07/10 02:53:27;;;;;;;4.60;3.97;;;20.00;99.90;;;;;;5053002;28;20469;-52
2023/07/10 02:55:54;;;;;;;5.03;4.00;;;20.00;99.90;;;;;;5049307;28;20489;-52
2023/07/10 02:58:20;;;;;;;6.87;4.40;;;20.00;99.90;;;;;;5053716;28;20951;-52
2023/07/10 03:00:55;;;;;;;8.00;4.90;;;20.00;99.90;;;;;;5050326;28;20557;-53
2023/07/10 03:03:21;;;;;;;5.00;4.00;;;20.00;99.90;;;;;;5047875;28;20481;-52
2023/07/10 03:05:54;;;;;;;5.83;3.70;;;20.00;99.90;;;;;;5046168;28;20565;-52
2023/07/10 03:08:21;;;;;;;4.93;4.50;;;20.00;99.90;;;;;;5050969;28;20520;-52
2023/07/10 03:10:47;;;;;;;6.93;4.83;;;20.00;99.90;;;;;;5053749;28;20610;-52
2023/07/10 03:13:14;;;;;;;5.30;4.37;;;20.00;92.70;;;;;;5054258;28;20521;-53
2023/07/10 03:15:40;;;;;;;5.40;3.63;;;20.00;82.20;;;;;;5052655;28;20505;-52
2023/07/10 03:18:07;;;;;;;5.43;4.70;;;20.00;96.60;;;;;;5054133;28;21162;-52
2023/07/10 03:20:34;;;;;;;4.00;3.70;;;20.00;89.70;;;;;;5054135;28;21026;-53
2023/07/10 03:23:00;;;;;;;4.37;3.70;;;19.90;99.90;;;;;;5048518;28;20538;-53
2023/07/10 03:25:27;;;;;;;4.30;3.63;;;19.90;99.90;;;;;;5052111;28;20462;-53
2023/07/10 03:27:53;;;;;;;4.63;3.90;;;19.90;99.90;;;;;;5053394;28;20515;-52
2023/07/10 03:30:20;;;;;;;5.60;4.30;;;19.90;77.30;;;;;;5052385;28;20561;-52
2023/07/10 03:32:47;;;;;;;10.50;4.30;;;19.90;21.80;;;;;;5048030;28;20553;-52
2023/07/10 03:35:13;;;;;;;7.00;3.83;;;19.90;78.10;;;;;;5049350;28;21051;-52
2023/07/10 03:37:40;;;;;;;5.70;3.50;;;20.00;22.20;;;;;;5048132;28;20513;-52
2023/07/10 03:40:09;;;;;;;11.77;4.30;;;20.00;20.30;;;;;;5046074;28;20505;-52
2023/07/10 03:42:35;;;;;;;5.20;3.83;;;19.90;73.00;;;;;;5049879;28;20490;-52
2023/07/10 03:45:02;;;;;;;4.20;3.90;;;19.90;31.50;;;;;;5047633;28;20497;-52
2023/07/10 03:47:29;;;;;;;16.93;3.63;;;19.90;31.70;;;;;;5052151;28;20549;-52
2023/07/10 03:49:55;;;;;;;5.57;3.97;;;20.00;34.30;;;;;;5044866;28;20489;-55
2023/07/10 03:52:22;;;;;;;4.03;3.70;;;20.00;26.40;;;;;;5050598;28;21001;-52
2023/07/10 03:54:48;;;;;;;4.33;3.97;;;20.00;25.60;;;;;;5044042;28;20549;-52
2023/07/10 03:57:16;;;;;;;11.60;4.20;;;20.10;31.60;;;;;;5050235;28;20570;-52
2023/07/10 03:59:42;;;;;;;4.40;4.00;;;20.10;21.20;;;;;;5050945;28;20514;-52
2023/07/10 04:02:09;;;;;;;6.40;3.60;;;20.10;21.60;;;;;;5051363;28;20557;-53
2023/07/10 04:04:35;;;;;;;9.00;3.80;;;20.10;22.10;;;;;;5050974;28;20546;-53
2023/07/10 04:07:02;;;;;;;10.33;4.43;;;20.10;21.20;;;;;;5044501;28;20553;-51
2023/07/10 04:09:29;;;;;;;5.77;3.90;;;20.10;82.10;;;;;;5049301;28;20490;-53
2023/07/10 04:11:55;;;;;;;4.63;3.23;;;20.10;27.50;;;;;;5045968;28;20544;-52
2023/07/10 04:14:23;;;;;;;5.23;4.10;;;20.10;22.40;;;;;;5048176;28;20556;-52
2023/07/10 04:16:52;;;;;;;4.37;3.93;;;20.10;88.50;;;;;;5046176;28;20579;-52
2023/07/10 04:19:19;;;;;;;9.23;4.93;;;20.20;91.40;;;;;;5050057;28;20497;-51
2023/07/10 04:21:45;;;;;;;6.03;4.60;;;20.20;80.30;;;;;;5048470;28;20541;-53
2023/07/10 04:24:12;;;;;;;4.30;3.90;;;20.20;75.00;;;;;;5047501;28;20546;-53
2023/07/10 04:26:39;;;;;;;8.10;4.73;;;20.30;20.50;;;;;;5044762;28;20459;-52
2023/07/10 04:29:07;;;;;;;5.07;4.30;;;20.30;23.40;;;;;;5048950;28;20954;-52
2023/07/10 04:31:35;;;;;;;4.43;4.03;;;20.30;27.40;;;;;;5047217;28;20545;-52
2023/07/10 04:34:01;;;;;;;4.07;3.77;;;20.40;29.70;;;;;;5049579;28;20549;-52
2023/07/10 04:36:28;;;;;;;5.77;4.00;;;20.40;34.60;;;;;;5051729;28;20490;-52
2023/07/10 04:38:55;;;;;;;6.63;4.03;;;20.50;42.00;;;;;;5043503;28;20577;-51
2023/07/10 04:41:24;;;;;;;8.33;4.53;;;20.60;40.40;;;;;;5048041;28;20556;-51
2023/07/10 04:43:50;;;;;;;5.80;4.23;;;20.60;44.30;;;;;;5041580;28;20486;-51
2023/07/10 04:46:18;;;;;;;5.57;4.70;;;20.60;55.50;;;;;;5051293;28;20501;-51
2023/07/10 04:48:46;;;;;;;8.47;4.40;;;20.70;56.40;;;;;;5052311;28;20959;-51
2023/07/10 04:51:14;;;;;;;7.60;4.57;;;20.70;54.90;;;;;;5051717;28;20473;-53
2023/07/10 04:53:41;;;;;;;4.63;4.20;;;20.70;60.20;;;;;;5048444;28;20617;-52
2023/07/10 04:56:11;;;;;;;5.10;3.90;;;20.90;58.60;;;;;;5047931;28;20553;-52
2023/07/10 04:58:50;;;;;;;9.27;4.50;;;20.90;71.00;;;;;;5051244;28;20539;-52
2023/07/10 05:01:17;;;;;;;4.57;3.73;;;21.00;72.10;;;;;;5050233;28;20496;-52
2023/07/10 05:03:43;;;;;;;6.47;4.53;;;21.00;75.50;;;;;;5045833;28;20548;-52
2023/07/10 05:06:11;;;;;;;4.87;4.47;;;21.10;72.60;;;;;;5050628;28;20549;-52
2023/07/10 05:08:38;;;;;;;5.97;4.47;;;21.10;71.60;;;;;;5042263;28;20500;-51
2023/07/10 05:11:04;;;;;;;5.93;4.70;;;21.10;70.30;;;;;;5047294;28;20506;-52
2023/07/10 05:13:31;;;;;;;8.13;3.90;;;21.10;76.40;;;;;;5046874;28;20542;-51
2023/07/10 05:15:59;;;;;;;6.63;5.30;;;21.10;72.90;;;;;;5044112;28;20988;-52
2023/07/10 05:18:26;;;;;;;5.07;4.50;;;21.10;60.70;;;;;;5047085;28;21279;-52
2023/07/10 05:20:53;;;;;;;5.33;4.57;;;21.00;51.50;;;;;;5045770;28;20489;-52
2023/07/10 05:23:21;;;;;;;9.27;4.80;;;21.00;53.50;;;;;;5050736;28;20532;-53
2023/07/10 05:25:58;;;;;;;5.23;4.73;;;20.90;55.90;;;;;;5048625;28;20494;-52
2023/07/10 05:28:26;;;;;;;9.47;4.77;;;20.80;48.70;;;;;;5051560;28;20458;-52
2023/07/10 05:30:53;;;;;;;9.77;6.70;;;20.70;99.90;;;;;;5046808;28;21106;-52
2023/07/10 05:33:20;;;;;;;10.97;6.20;;;20.30;99.90;;;;;;5049245;28;20545;-52
2023/07/10 05:35:51;;;;;;;16.63;5.90;;;20.10;99.90;;;;;;5048893;28;20588;-52
2023/07/10 05:38:17;;;;;;;7.00;5.30;;;19.50;72.20;;;;;;5049672;28;21068;-52
2023/07/10 05:40:45;;;;;;;10.70;5.40;;;18.90;99.90;;;;;;5046086;28;20473;-52
2023/07/10 05:43:12;;;;;;;8.60;5.50;;;18.70;99.90;;;;;;5047697;28;20902;-52
2023/07/10 05:45:38;;;;;;;8.90;5.13;;;18.60;99.90;;;;;;5046535;28;20548;-52
2023/07/10 05:48:06;;;;;;;6.67;6.00;;;18.50;99.90;;;;;;5048475;28;20512;-52
2023/07/10 05:50:33;;;;;;;14.30;5.93;;;18.30;99.90;;;;;;5049177;28;20517;-52
2023/07/10 05:52:59;;;;;;;9.30;6.03;;;18.20;99.90;;;;;;5049553;28;20497;-52
2023/07/10 05:55:26;;;;;;;7.60;5.67;;;18.20;99.90;;;;;;5050885;28;20589;-51
2023/07/10 05:57:54;;;;;;;11.90;6.10;;;18.20;99.90;;;;;;5049333;28;20576;-52
2023/07/10 06:00:20;;;;;;;8.00;6.37;;;18.20;88.80;;;;;;5052278;28;20990;-51
2023/07/10 06:02:47;;;;;;;18.40;7.10;;;18.10;83.90;;;;;;5038963;28;20552;-52
2023/07/10 06:05:14;;;;;;;19.33;6.43;;;18.20;75.80;;;;;;5051321;28;20545;-53
2023/07/10 06:07:40;;;;;;;11.73;6.37;;;18.10;67.80;;;;;;5047681;28;20557;-51
2023/07/10 06:10:08;;;;;;;13.83;7.00;;;18.10;62.90;;;;;;5048374;28;20577;-51
2023/07/10 06:12:34;;;;;;;25.13;8.03;;;18.00;59.40;;;;;;5052721;28;20578;-51
2023/07/10 06:15:02;;;;;;;12.33;7.50;;;18.00;57.30;;;;;;5053878;28;20549;-52
2023/07/10 06:17:28;;;;;;;9.47;6.33;;;17.90;54.80;;;;;;5055260;28;20572;-52
2023/07/10 06:19:55;;;;;;;14.37;7.50;;;17.90;52.40;;;;;;5055024;28;20572;-52
2023/07/10 06:22:22;;;;;;;10.13;6.40;;;17.90;50.30;;;;;;5050734;28;20481;-51
2023/07/10 06:24:48;;;;;;;11.13;6.60;;;18.00;47.60;;;;;;5056182;28;20295;-51
2023/07/10 06:27:15;;;;;;;14.53;6.60;;;18.00;45.60;;;;;;5043066;28;21149;-51
2023/07/10 06:29:41;;;;;;;8.87;6.20;;;18.00;43.50;;;;;;5054975;28;20898;-51
2023/07/10 06:32:10;;;;;;;10.33;6.50;;;18.00;41.10;;;;;;5053097;28;20458;-51
2023/07/10 06:34:36;;;;;;;7.90;6.00;;;18.00;39.70;;;;;;5053991;28;20445;-52
2023/07/10 06:37:03;;;;;;;6.57;5.90;;;18.10;37.90;;;;;;5054354;28;20481;-51
2023/07/10 06:39:29;;;;;;;12.67;7.27;;;18.10;36.40;;;;;;5052518;28;20531;-51
2023/07/10 06:41:56;;;;;;;9.10;6.90;;;18.10;35.30;;;;;;5053738;28;20557;-54
2023/07/10 06:44:22;;;;;;;11.93;7.60;;;18.10;33.90;;;;;;5052386;28;20501;-53
2023/07/10 06:46:49;;;;;;;13.90;7.30;;;18.10;33.40;;;;;;5048837;28;20572;-52
2023/07/10 06:49:17;;;;;;;9.00;6.17;;;18.20;32.40;;;;;;5051552;28;20482;-51
2023/07/10 06:51:43;;;;;;;7.47;6.23;;;18.20;32.00;;;;;;5050786;28;20617;-52
2023/07/10 06:54:11;;;;;;;8.63;6.43;;;18.20;31.00;;;;;;5052669;28;20963;-53
2023/07/10 06:56:37;;;;;;;12.43;6.67;;;18.30;30.10;;;;;;5048017;28;20544;-52
2023/07/10 06:59:04;;;;;;;13.47;6.40;;;18.30;29.50;;;;;;5052079;28;20576;-53
2023/07/10 07:01:30;;;;;;;7.90;6.40;;;18.30;28.70;;;;;;5052260;28;21027;-53
2023/07/10 07:03:57;;;;;;;9.87;6.83;;;18.40;27.60;;;;;;5052927;28;20603;-53
2023/07/10 07:06:25;;;;;;;10.13;6.50;;;18.50;26.40;;;;;;5050819;28;20983;-52
2023/07/10 07:08:53;;;;;;;7.70;6.90;;;18.50;26.50;;;;;;5052228;28;20533;-52
2023/07/10 07:11:20;;;;;;;9.00;7.10;;;18.60;24.70;;;;;;5051539;28;20454;-55
2023/07/10 07:13:46;;;;;;;9.23;6.90;;;18.70;23.20;;;;;;5049213;28;20565;-53
2023/07/10 07:16:13;;;;;;;8.60;7.10;;;18.70;23.50;;;;;;5049631;28;20545;-53
2023/07/10 07:18:40;;;;;;;10.37;7.90;;;18.80;23.10;;;;;;5050102;28;20990;-53
2023/07/10 07:21:07;;;;;;;9.37;7.63;;;18.80;22.00;;;;;;5050359;28;20528;-53
2023/07/10 07:23:35;;;;;;;14.03;8.40;;;18.90;22.10;;;;;;5047166;28;20462;-53
2023/07/10 07:26:02;;;;;;;16.27;7.73;;;18.90;22.40;;;;;;5049591;28;20553;-52
2023/07/10 07:28:28;;;;;;;10.20;6.10;;;18.90;22.10;;;;;;5048517;28;20509;-52
2023/07/10 07:31:02;;;;;;;9.33;7.50;;;18.90;22.20;;;;;;5049829;28;20572;-52
2023/07/10 07:33:29;;;;;;;11.07;8.73;;;19.00;21.20;;;;;;5049770;28;20540;-52
2023/07/10 07:35:55;;;;;;;8.60;7.67;;;19.10;82.10;;;;;;5050920;28;20553;-52
2023/07/10 07:38:22;;;;;;;9.70;7.03;;;19.20;97.20;;;;;;5051815;28;20520;-53
2023/07/10 07:40:50;;;;;;;7.33;6.63;;;19.30;99.90;;;;;;5049285;28;20528;-53
2023/07/10 07:43:17;;;;;;;9.03;6.80;;;19.50;99.90;;;;;;5049170;28;21019;-53
2023/07/10 07:45:51;;;;;;;7.20;6.57;;;19.70;99.90;;;;;;5050638;28;20568;-52
2023/07/10 07:48:17;;;;;;;8.27;7.30;;;19.70;99.90;;;;;;5049911;28;20549;-52
2023/07/10 07:50:44;;;;;;;7.83;7.03;;;19.80;82.20;;;;;;5049346;28;21360;-52
2023/07/10 07:53:10;;;;;;;12.27;6.30;;;19.90;99.90;;;;;;5050942;28;20481;-53
2023/07/10 07:55:37;;;;;;;9.00;6.33;;;20.00;83.40;;;;;;5049736;28;20565;-53
2023/07/10 07:58:05;;;;;;;9.63;6.73;;;20.20;84.10;;;;;;5051159;28;21042;-52
2023/07/10 08:00:31;;;;;;;8.80;7.90;;;20.40;83.40;;;;;;5050104;28;20565;-51
2023/07/10 08:02:58;;;;;;;7.70;6.97;;;20.50;83.40;;;;;;5051595;28;20981;-53
2023/07/10 08:05:25;;;;;;;8.50;7.20;;;20.70;79.40;;;;;;5050457;28;20490;-52
2023/07/10 08:07:51;;;;;;;10.37;6.53;;;20.90;82.30;;;;;;5051372;28;20456;-52
2023/07/10 08:10:18;;;;;;;7.87;7.10;;;21.00;96.10;;;;;;5049158;28;20994;-53
2023/07/10 08:12:44;;;;;;;8.17;7.20;;;21.20;99.90;;;;;;5051452;28;20541;-52
2023/07/10 08:15:12;;;;;;;7.70;6.60;;;21.30;99.90;;;;;;5040961;28;20503;-52
2023/07/10 08:17:39;;;;;;;20.40;7.27;;;21.40;99.90;;;;;;5049721;28;20517;-52
2023/07/10 08:20:07;;;;;;;7.70;7.00;;;21.50;99.90;;;;;;5050144;28;20623;-52
2023/07/10 08:22:34;;;;;;;14.90;6.90;;;21.70;99.90;;;;;;5048124;28;20458;-52
2023/07/10 08:25:01;;;;;;;13.23;7.80;;;21.90;99.90;;;;;;5047991;28;20493;-53
2023/07/10 08:27:28;;;;;;;7.53;6.60;;;22.00;99.90;;;;;;5049578;28;20477;-52
2023/07/10 08:29:54;;;;;;;10.13;7.47;;;22.20;99.90;;;;;;5044623;28;20557;-52
2023/07/10 08:32:22;;;;;;;9.70;7.40;;;22.50;99.90;;;;;;5047339;28;20517;-52
2023/07/10 08:34:49;;;;;;;7.87;7.17;;;22.70;99.90;;;;;;5047383;28;20916;-52
2023/07/10 08:37:15;;;;;;;7.67;6.90;;;22.90;99.90;;;;;;5041208;28;20540;-52
2023/07/10 08:39:42;;;;;;;10.17;6.60;;;23.00;55.90;;;;;;5043391;28;20592;-52
2023/07/10 08:42:17;;;;;;;9.47;6.20;;;23.20;91.20;;;;;;5043339;28;20458;-52
2023/07/10 08:44:44;;;;;;;11.57;7.07;;;23.50;96.90;;;;;;5046836;28;20549;-52
2023/07/10 08:47:16;;;;;;;6.67;6.03;;;23.70;61.80;;;;;;5043673;28;20462;-52
2023/07/10 08:49:53;;;;;;;7.17;6.47;;;23.80;81.00;;;;;;5046652;28;20846;-52
2023/07/10 08:52:32;;;;;;;7.93;6.50;;;23.90;68.80;;;;;;5048997;28;21017;-52
2023/07/10 08:54:58;;;;;;;9.20;6.50;;;23.90;99.90;;;;;;5042408;28;20493;-56
2023/07/10 08:57:32;;;;;;;6.67;5.93;;;24.10;99.90;;;;;;5043148;28;20557;-53
2023/07/10 09:00:04;;;;;;;9.60;5.97;;;24.30;99.90;;;;;;5047699;28;20540;-52
2023/07/10 09:02:38;;;;;;;12.17;5.80;;;24.50;99.90;;;;;;5048343;28;21082;-52
2023/07/10 09:05:09;;;;;;;8.43;5.60;;;24.60;89.10;;;;;;5048087;28;20549;-52
2023/07/10 09:07:42;;;;;;;8.57;6.30;;;24.90;93.50;;;;;;5047158;28;20544;-52
2023/07/10 09:10:15;;;;;;;9.33;6.27;;;25.10;35.30;;;;;;5046813;28;20477;-53
2023/07/10 09:12:46;;;;;;;6.27;5.67;;;25.30;99.90;;;;;;5042487;28;20545;-53
2023/07/10 09:15:15;;;;;;;6.67;5.87;;;25.70;99.90;;;;;;5043067;28;20541;-53
2023/07/10 09:17:54;;;;;;;6.60;6.00;;;25.80;99.90;;;;;;5050217;28;20963;-53
2023/07/10 09:20:24;;;;;;;8.07;5.87;;;26.20;99.90;;;;;;5049730;28;20485;-53
2023/07/10 09:22:54;;;;;;;14.30;6.13;;;26.60;99.90;;;;;;5048549;28;20491;-52
2023/07/10 09:25:21;;;;;;;6.70;6.00;;;26.80;99.90;;;;;;5047399;28;20503;-52
2023/07/10 09:27:48;;;;;;;5.57;5.07;;;26.90;99.90;;;;;;5049140;28;20557;-53
2023/07/10 09:30:28;;;;;;;6.23;5.60;;;26.80;99.90;;;;;;5039467;28;20569;-52
2023/07/10 09:33:00;;;;;;;10.33;5.70;;;26.90;99.90;;;;;;5047828;28;20461;-53
2023/07/10 09:35:29;;;;;;;5.97;5.37;;;26.90;99.90;;;;;;5050220;28;20569;-52
2023/07/10 09:37:55;;;;;;;7.60;5.20;;;26.80;99.90;;;;;;5049203;28;20462;-52
2023/07/10 09:40:37;;;;;;;10.20;5.90;;;26.80;99.90;;;;;;5047894;28;20565;-53
2023/07/10 09:43:06;;;;;;;8.80;5.40;;;27.00;99.90;;;;;;5049572;28;21031;-52
2023/07/10 09:45:35;;;;;;;7.67;5.90;;;27.20;99.90;;;;;;5042467;28;20957;-53
2023/07/10 09:48:01;;;;;;;10.00;5.70;;;27.20;99.90;;;;;;5048533;28;21044;-53
2023/07/10 09:50:33;;;;;;;7.13;6.37;;;27.30;99.90;;;;;;5047962;28;20560;-52
2023/07/10 09:52:59;;;;;;;9.63;6.40;;;27.30;99.90;;;;;;5049860;28;20461;-52
2023/07/10 09:55:26;;;;;;;9.73;6.23;;;27.30;99.90;;;;;;5047510;28;20541;-52
2023/07/10 09:57:57;;;;;;;7.57;5.63;;;27.40;99.90;;;;;;5049200;28;20493;-52
2023/07/10 10:00:25;;;;;;;11.93;6.50;;;27.50;99.90;;;;;;5047964;28;20482;-52
2023/07/10 10:02:56;;;;;;;7.33;6.53;;;27.80;99.90;;;;;;5048790;28;20493;-52
2023/07/10 10:05:23;;;;;;;13.83;5.97;;;27.70;99.90;;;;;;5048642;28;20484;-53
2023/07/10 10:07:52;;;;;;;7.27;6.67;;;27.80;99.90;;;;;;5048448;28;20544;-53
2023/07/10 10:10:26;;;;;;;12.10;6.70;;;28.00;99.90;;;;;;5047300;28;21194;-53
2023/07/10 10:12:59;;;;;;;9.00;7.17;;;28.30;99.90;;;;;;5050055;28;21027;-52
2023/07/10 10:15:37;;;;;;;6.20;5.60;;;28.70;99.90;;;;;;5047922;28;20557;-53
2023/07/10 10:18:07;;;;;;;10.80;6.50;;;28.90;99.90;;;;;;5049671;28;20539;-52
2023/07/10 10:20:36;;;;;;;9.80;5.90;;;28.70;99.90;;;;;;5047828;28;21043;-53
2023/07/10 10:23:05;;;;;;;20.63;7.43;;;29.10;99.90;;;;;;5047828;28;20545;-52
2023/07/10 10:25:37;;;;;;;10.90;5.93;;;29.50;99.90;;;;;;5041967;28;20601;-52
2023/07/10 10:28:23;;;;;;;9.40;6.30;;;29.70;99.90;;;;;;5049239;28;20492;-52
2023/07/10 10:30:55;;;;;;;7.73;5.67;;;29.70;99.90;;;;;;5046192;28;20594;-53
2023/07/10 10:33:29;;;;;;;7.70;6.37;;;30.00;99.90;;;;;;5046521;28;20894;-52
2023/07/10 10:35:59;;;;;;;8.80;6.00;;;30.60;99.90;;;;;;5047667;28;20532;-53
2023/07/10 10:38:40;;;;;;;6.53;5.50;;;31.10;99.90;;;;;;5044704;28;20454;-52
2023/07/10 10:41:23;;;;;;;8.53;6.30;;;31.20;99.90;;;;;;5037864;28;20560;-52
2023/07/10 10:43:59;;;;;;;11.07;6.97;;;31.10;99.90;;;;;;5049247;28;20952;-53
2023/07/10 10:46:50;;;;;;;9.53;6.47;;;31.30;99.90;;;;;;5050473;28;20528;-52
2023/07/10 10:49:32;;;;;;;8.00;6.30;;;31.60;99.90;;;;;;5053629;28;20489;-52
2023/07/10 10:52:06;;;;;;;10.43;6.07;;;31.20;99.90;;;;;;5052003;28;20544;-53
2023/07/10 10:54:41;;;;;;;6.43;5.80;;;30.60;99.90;;;;;;5053159;28;20476;-52
2023/07/10 10:57:25;;;;;;;6.63;5.80;;;30.50;99.90;;;;;;5043196;28;20549;-53
2023/07/10 11:00:00;;;;;;;8.67;5.53;;;30.20;99.90;;;;;;5045975;28;20568;-52
2023/07/10 11:02:43;;;;;;;23.97;5.97;;;30.00;99.90;;;;;;5047829;28;20497;-53
2023/07/10 11:05:16;;;;;;;6.53;5.63;;;29.80;99.90;;;;;;5047288;28;20544;-53
2023/07/10 11:07:45;;;;;;;8.50;5.23;;;30.20;99.90;;;;;;5050473;28;20458;-53
2023/07/10 11:10:21;;;;;;;10.97;5.70;;;30.60;99.90;;;;;;5048742;28;20569;-53
2023/07/10 11:12:48;;;;;;;9.43;5.53;;;30.50;99.90;;;;;;5048463;28;21113;-53
2023/07/10 11:15:18;;;;;;;6.57;5.50;;;30.20;99.90;;;;;;5050385;28;20552;-53
2023/07/10 11:17:49;;;;;;;7.80;6.03;;;29.80;99.90;;;;;;5050845;28;20473;-52
2023/07/10 11:20:17;;;;;;;7.33;5.70;;;29.70;99.90;;;;;;5016647;28;987023;-53
2023/07/10 11:22:50;;;;;;;6.37;5.80;;;29.60;99.90;;;;;;5050507;28;20235;-53
2023/07/10 11:25:32;;;;;;;8.70;6.10;;;29.70;99.90;;;;;;5052777;28;20493;-52
2023/07/10 11:28:03;;;;;;;8.00;6.03;;;30.00;99.90;;;;;;5051316;28;20557;-52
2023/07/10 11:30:35;;;;;;;9.00;6.30;;;30.00;99.90;;;;;;5050599;28;20469;-52
2023/07/10 11:33:15;;;;;;;8.20;5.40;;;30.20;99.90;;;;;;5049259;28;20545;-53
2023/07/10 11:36:12;;;;;;;8.07;5.70;;;30.10;99.90;;;;;;5050438;28;20576;-52
2023/07/10 11:38:54;;;;;;;8.30;6.30;;;30.20;99.90;;;;;;5050581;28;20465;-52
2023/07/10 11:41:29;;;;;;;6.80;5.50;;;30.20;99.90;;;;;;5045542;28;21022;-52
2023/07/10 11:44:32;;;;;;;7.77;5.80;;;30.10;99.90;;;;;;5052173;28;20544;-53
2023/07/10 11:47:11;;;;;;;8.00;6.33;;;30.00;99.90;;;;;;5025941;28;20492;-53
2023/07/10 11:49:46;;;;;;;10.60;6.60;;;30.00;99.90;;;;;;5051249;28;20488;-52
2023/07/10 11:52:29;;;;;;;8.70;6.20;;;30.00;99.90;;;;;;5049208;28;20536;-53
2023/07/10 11:55:23;;;;;;;6.90;5.87;;;29.90;99.90;;;;;;5051593;28;20469;-52
2023/07/10 11:58:22;;;;;;;5.67;5.17;;;29.80;99.90;;;;;;5043494;28;20553;-52
2023/07/10 12:00:49;;;;;;;6.60;6.00;;;30.00;99.90;;;;;;5047993;28;20563;-53
2023/07/10 12:03:15;;;;;;;6.80;6.20;;;30.50;99.90;;;;;;5043521;28;20557;-53
2023/07/10 12:05:42;;;;;;;8.93;6.00;;;30.60;99.90;;;;;;5049933;28;20987;-53
2023/07/10 12:08:12;;;;;;;9.40;6.27;;;30.70;99.90;;;;;;5040761;28;20537;-53
2023/07/10 12:10:40;;;;;;;8.17;6.00;;;30.70;99.90;;;;;;5048268;28;21075;-53
2023/07/10 12:13:17;;;;;;;7.10;6.50;;;30.30;99.90;;;;;;5045929;28;20462;-52
2023/07/10 12:15:45;;;;;;;7.43;6.73;;;29.60;99.90;;;;;;5048802;28;20453;-52
2023/07/10 12:18:15;;;;;;;9.07;6.33;;;29.50;99.90;;;;;;5049409;28;20493;-53
2023/07/10 12:20:43;;;;;;;7.77;6.47;;;29.90;99.90;;;;;;5047949;28;20576;-53
2023/07/10 12:23:12;;;;;;;8.23;5.43;;;30.20;99.90;;;;;;5049388;28;20987;-52
2023/07/10 12:25:46;;;;;;;8.20;6.43;;;30.30;99.90;;;;;;5048288;28;20492;-53
2023/07/10 12:28:16;;;;;;;9.53;6.20;;;30.40;99.90;;;;;;5049477;28;20490;-53
2023/07/10 12:30:48;;;;;;;6.70;6.07;;;30.50;99.90;;;;;;5049923;28;20501;-53
2023/07/10 12:33:37;;;;;;;8.37;5.90;;;30.50;99.90;;;;;;5050348;28;20504;-54
2023/07/10 12:36:06;;;;;;;8.40;6.37;;;30.50;99.90;;;;;;5048148;28;20458;-53
2023/07/10 12:38:33;;;;;;;10.97;6.10;;;29.50;99.90;;;;;;5046434;28;20588;-53
2023/07/10 12:41:00;;;;;;;10.30;6.00;;;29.00;99.90;;;;;;5048520;28;20589;-52
2023/07/10 12:43:29;;;;;;;16.40;6.53;;;28.80;99.90;;;;;;5041468;28;20561;-52
2023/07/10 12:45:57;;;;;;;7.33;6.17;;;29.00;99.90;;;;;;5046147;28;20541;-52
2023/07/10 12:48:26;;;;;;;14.33;5.40;;;29.90;99.90;;;;;;5052473;28;20556;-52
2023/07/10 12:50:56;;;;;;;9.83;6.00;;;29.60;99.90;;;;;;5041563;28;20465;-52
2023/07/10 12:53:24;;;;;;;20.20;6.77;;;28.50;99.90;;;;;;5040351;28;20481;-53
2023/07/10 12:55:54;;;;;;;8.17;7.03;;;28.10;99.90;;;;;;5050288;28;20468;-53